createdAt,value
2018-04-14T00:02:04.181Z,97114.41
2018-04-14T00:04:34.283Z,97110.09
2018-04-14T00:07:05.103Z,97108.94
2018-04-14T00:09:35.219Z,97108.53
2018-04-14T00:12:04.310Z,97113.56
2018-04-14T00:14:32.763Z,97114.86
2018-04-14T00:17:01.270Z,97106.78
2018-04-14T00:19:31.397Z,97115.11
2018-04-14T00:24:51.636Z,97119.52
2018-04-14T00:27:21.775Z,97119.78
2018-04-14T00:29:51.773Z,97127.22
2018-04-14T00:32:21.865Z,97120.31
2018-04-14T00:34:51.879Z,97118.01
2018-04-14T00:37:20.358Z,97131.33
2018-04-14T00:39:48.638Z,97134.57
2018-04-14T00:42:19.624Z,97132.42
2018-04-14T00:44:49.698Z,97128.97
2018-04-14T00:47:18.671Z,97134.80
2018-04-14T00:49:48.882Z,97140.30
2018-04-14T00:52:18.300Z,97136.95
2018-04-14T00:54:50.176Z,97138.67
2018-04-14T00:57:20.296Z,97140.86
2018-04-14T00:59:50.396Z,97140.86
2018-04-14T01:02:20.464Z,97140.45
2018-04-14T01:04:50.498Z,97141.75
2018-04-14T01:07:18.756Z,97133.67
2018-04-14T01:09:47.230Z,97139.56
2018-04-14T01:12:15.612Z,97136.14
2018-04-14T01:14:45.675Z,97140.67
2018-04-14T01:17:21.350Z,97147.30
2018-04-14T01:19:51.419Z,97146.31
2018-04-14T01:22:20.905Z,97142.84
2018-04-14T01:24:50.010Z,97148.99
2018-04-14T01:27:21.039Z,97148.90
2018-04-14T01:29:50.172Z,97150.59
2018-04-14T01:32:18.640Z,97145.88
2018-04-14T01:34:48.518Z,97148.15
2018-04-14T01:37:16.827Z,97151.80
2018-04-14T01:39:47.379Z,97151.31
2018-04-14T01:42:18.172Z,97150.97
2018-04-14T01:44:49.127Z,97152.17
2018-04-14T01:47:23.825Z,97152.91
2018-04-14T01:49:52.193Z,97147.48
2018-04-14T01:52:20.533Z,97151.73
2018-04-14T01:54:50.450Z,97149.31
2018-04-14T01:57:18.806Z,97150.64
2018-04-14T01:59:49.767Z,97150.67
2018-04-14T02:02:18.765Z,97147.25
2018-04-14T02:04:48.773Z,97147.02
2018-04-14T02:07:18.893Z,97147.33
2018-04-14T02:09:47.287Z,97143.07
2018-04-14T02:12:17.321Z,97141.38
2018-04-14T02:14:46.297Z,97145.53
2018-04-14T02:17:15.709Z,97153.00
2018-04-14T02:19:46.580Z,97155.09
2018-04-14T02:22:16.679Z,97163.89
2018-04-14T02:24:46.748Z,97169.20
2018-04-14T02:27:16.788Z,97170.72
2018-04-14T02:29:46.801Z,97171.38
2018-04-14T02:32:18.722Z,97169.50
2018-04-14T02:34:48.665Z,97169.33
2018-04-14T02:37:18.218Z,97172.57
2018-04-14T02:39:47.231Z,97175.84
2018-04-14T02:42:17.297Z,97172.67
2018-04-14T02:44:54.018Z,97174.58
2018-04-14T02:47:22.298Z,97175.84
2018-04-14T02:49:52.198Z,97176.70
2018-04-14T02:52:21.193Z,97182.22
2018-04-14T02:54:50.192Z,97180.92
2018-04-14T02:57:21.252Z,97174.97
2018-04-14T02:59:51.295Z,97176.73
2018-04-14T03:02:19.538Z,97181.39
2018-04-14T03:04:47.754Z,97178.91
2018-04-14T03:07:16.799Z,97180.20
2018-04-14T03:09:48.680Z,97178.08
2018-04-14T03:12:17.760Z,97179.77
2018-04-14T03:14:46.249Z,97182.69
2018-04-14T03:17:16.251Z,97172.92
2018-04-14T03:19:45.376Z,97175.05
2018-04-14T03:22:17.966Z,97177.64
2018-04-14T03:24:49.184Z,97178.87
2018-04-14T03:27:19.124Z,97177.50
2018-04-14T03:29:49.176Z,97182.86
2018-04-14T03:32:21.971Z,97178.57
2018-04-14T03:34:52.007Z,97183.86
2018-04-14T03:37:20.314Z,97188.67
2018-04-14T03:39:50.421Z,97187.45
2018-04-14T03:42:18.712Z,97179.11
2018-04-14T03:44:47.095Z,97185.16
2018-04-14T03:47:17.833Z,97183.59
2018-04-14T03:49:46.143Z,97190.36
2018-04-14T03:52:17.087Z,97186.06
2018-04-14T03:54:47.953Z,97189.21
2018-04-14T03:57:18.539Z,97193.03
2018-04-14T03:59:48.225Z,97194.88
2018-04-14T04:02:17.239Z,97199.97
2018-04-14T04:04:47.362Z,97198.82
2018-04-14T04:07:18.696Z,97207.69
2018-04-14T04:09:47.808Z,97210.67
2018-04-14T04:12:17.962Z,97214.49
2018-04-14T04:14:46.219Z,97220.39
2018-04-14T04:17:19.163Z,97222.48
2018-04-14T04:19:59.230Z,97218.55
2018-04-14T04:22:45.306Z,97216.44
2018-04-14T04:25:27.724Z,97224.16
2018-04-14T04:27:58.836Z,97226.98
2018-04-14T04:30:28.897Z,97229.30
2018-04-14T04:32:57.202Z,97233.41
2018-04-14T04:35:25.551Z,97236.28
2018-04-14T04:37:56.914Z,97243.79
2018-04-14T04:40:29.374Z,97242.45
2018-04-14T04:42:59.534Z,97248.48
2018-04-14T04:45:29.578Z,97248.61
2018-04-14T04:47:57.901Z,97249.13
2018-04-14T04:50:28.706Z,97255.16
2018-04-14T04:52:58.700Z,97257.24
2018-04-14T04:55:26.938Z,97259.84
2018-04-14T04:57:55.220Z,97257.84
2018-04-14T05:00:25.253Z,97263.48
2018-04-14T05:02:54.330Z,97258.61
2018-04-14T05:05:22.814Z,97266.30
2018-04-14T05:07:51.804Z,97273.60
2018-04-14T05:10:24.804Z,97271.33
2018-04-14T05:12:55.677Z,97279.28
2018-04-14T05:15:24.724Z,97281.88
2018-04-14T05:18:00.738Z,97289.95
2018-04-14T05:20:30.651Z,97287.61
2018-04-14T05:22:59.002Z,97295.97
2018-04-14T05:25:30.014Z,97287.98
2018-04-14T05:27:59.059Z,97291.89
2018-04-14T05:30:31.304Z,97294.18
2018-04-14T05:33:01.317Z,97286.50
2018-04-14T05:35:31.242Z,97292.02
2018-04-14T05:38:01.357Z,97284.30
2018-04-14T05:40:32.304Z,97285.90
2018-04-14T05:43:03.230Z,97283.22
2018-04-14T05:45:33.178Z,97279.66
2018-04-14T05:48:03.064Z,97275.52
2018-04-14T05:50:33.317Z,97283.16
2018-04-14T05:53:03.374Z,97285.52
2018-04-14T05:55:32.372Z,97294.67
2018-04-14T05:58:00.698Z,97297.02
2018-04-14T06:00:31.698Z,97296.41
2018-04-14T06:03:01.916Z,97296.63
2018-04-14T06:05:31.386Z,97303.52
2018-04-14T06:08:00.474Z,97300.77
2018-04-14T06:10:28.812Z,97303.50
2018-04-14T06:12:58.874Z,97308.80
2018-04-14T06:15:27.872Z,97308.13
2018-04-14T06:17:59.003Z,97313.42
2018-04-14T06:20:29.274Z,97320.80
2018-04-14T06:23:00.176Z,97316.02
2018-04-14T06:25:30.388Z,97316.70
2018-04-14T06:27:59.398Z,97319.48
2018-04-14T06:30:30.467Z,97324.33
2018-04-14T06:33:00.418Z,97327.45
2018-04-14T06:35:30.310Z,97328.93
2018-04-14T06:38:01.557Z,97322.79
2018-04-14T06:40:32.464Z,97327.59
2018-04-14T06:43:01.662Z,97331.91
2018-04-14T06:45:32.674Z,97327.80
2018-04-14T06:48:02.867Z,97335.14
2018-04-14T06:50:32.830Z,97332.44
2018-04-14T06:53:05.337Z,97341.93
2018-04-14T06:55:33.708Z,97340.80
2018-04-14T06:58:02.195Z,97349.45
2018-04-14T07:00:35.491Z,97355.47
2018-04-14T07:03:05.410Z,97351.77
2018-04-14T07:05:35.489Z,97349.91
2018-04-14T07:08:05.641Z,97353.92
2018-04-14T07:10:34.669Z,97349.12
2018-04-14T07:13:03.027Z,97350.98
2018-04-14T07:15:33.176Z,97346.03
2018-04-14T07:18:02.869Z,97344.97
2018-04-14T07:20:32.846Z,97346.84
2018-04-14T07:23:02.961Z,97345.75
2018-04-14T07:25:32.089Z,97342.14
2018-04-14T07:28:02.172Z,97344.83
2018-04-14T07:30:32.170Z,97344.52
2018-04-14T07:33:02.263Z,97345.06
2018-04-14T07:35:31.523Z,97356.64
2018-04-14T07:40:33.350Z,97356.08
2018-04-14T07:43:03.440Z,97360.41
2018-04-14T07:45:40.387Z,97355.41
2018-04-14T07:48:12.454Z,97358.14
2018-04-14T07:50:51.979Z,97359.62
2018-04-14T07:53:22.967Z,97355.94
2018-04-14T07:55:51.577Z,97360.37
2018-04-14T07:58:21.694Z,97360.59
2018-04-14T08:00:51.883Z,97362.80
2018-04-14T08:03:22.786Z,97360.30
2018-04-14T08:05:52.799Z,97358.28
2018-04-14T08:08:26.038Z,97361.83
2018-04-14T08:10:56.201Z,97358.55
2018-04-14T08:13:24.605Z,97363.34
2018-04-14T08:15:53.067Z,97361.72
2018-04-14T08:18:21.549Z,97358.83
2018-04-14T08:20:49.925Z,97365.69
2018-04-14T08:23:20.868Z,97359.88
2018-04-14T08:25:52.029Z,97361.24
2018-04-14T08:28:24.910Z,97362.17
2018-04-14T08:30:54.989Z,97358.86
2018-04-14T08:33:25.119Z,97359.42
2018-04-14T08:35:55.181Z,97361.17
2018-04-14T08:38:25.189Z,97359.14
2018-04-14T08:40:56.109Z,97354.53
2018-04-14T08:43:26.049Z,97363.12
2018-04-14T08:45:56.073Z,97352.12
2018-04-14T08:48:27.311Z,97347.50
2018-04-14T08:50:57.380Z,97342.81
2018-04-14T08:53:25.783Z,97347.95
2018-04-14T08:55:54.203Z,97342.02
2018-04-14T08:58:27.337Z,97345.88
2018-04-14T09:00:58.413Z,97343.81
2018-04-14T09:03:33.364Z,97345.10
2018-04-14T09:06:03.457Z,97342.98
2018-04-14T09:08:32.605Z,97340.44
2018-04-14T09:11:05.508Z,97341.28
2018-04-14T09:13:34.260Z,97340.02
2018-04-14T09:16:02.527Z,97341.30
2018-04-14T09:18:32.656Z,97341.72
2018-04-14T09:21:02.182Z,97335.33
2018-04-14T09:23:30.567Z,97338.72
2018-04-14T09:25:58.940Z,97342.57
2018-04-14T09:28:29.007Z,97339.55
2018-04-14T09:30:59.783Z,97333.98
2018-04-14T09:33:29.012Z,97333.14
2018-04-14T09:36:00.107Z,97338.25
2018-04-14T09:38:29.252Z,97341.20
2018-04-14T09:40:58.327Z,97333.90
2018-04-14T09:43:35.788Z,97333.02
2018-04-14T09:46:07.500Z,97332.11
2018-04-14T09:48:37.590Z,97328.22
2018-04-14T09:51:10.401Z,97333.67
2018-04-14T09:53:40.440Z,97325.48
2018-04-14T09:56:10.483Z,97320.72
2018-04-14T09:58:38.832Z,97317.70
2018-04-14T10:01:14.407Z,97305.72
2018-04-14T10:03:49.905Z,97309.56
2018-04-14T10:06:18.410Z,97313.36
2018-04-14T10:08:47.445Z,97309.45
2018-04-14T10:11:17.485Z,97303.00
2018-04-14T10:13:45.820Z,97297.84
2018-04-14T10:16:17.639Z,97307.61
2018-04-14T10:21:40.337Z,97298.97
2018-04-14T10:24:18.335Z,97293.84
2018-04-14T10:26:48.367Z,97301.42
2018-04-14T10:29:16.845Z,97299.30
2018-04-14T10:31:46.759Z,97296.72
2018-04-14T10:34:16.896Z,97297.97
2018-04-14T10:36:49.169Z,97297.02
2018-04-14T10:39:17.640Z,97293.61
2018-04-14T10:41:46.009Z,97291.85
2018-04-14T10:44:15.977Z,97286.61
2018-04-14T10:46:46.079Z,97280.87
2018-04-14T10:49:14.647Z,97284.55
2018-04-14T10:51:44.710Z,97271.20
2018-04-14T10:54:15.635Z,97274.61
2018-04-14T10:56:43.975Z,97269.25
2018-04-14T10:59:12.478Z,97275.94
2018-04-14T11:01:42.432Z,97271.22
2018-04-14T11:04:11.967Z,97272.95
2018-04-14T11:06:41.517Z,97266.52
2018-04-14T11:09:24.298Z,97268.50
2018-04-14T11:11:53.633Z,97265.69
2018-04-14T11:14:22.450Z,97269.06
2018-04-14T11:16:53.829Z,97261.19
2018-04-14T11:19:24.321Z,97257.16
2018-04-14T11:21:53.610Z,97259.19
2018-04-14T11:24:22.239Z,97261.36
2018-04-14T11:26:53.469Z,97259.77
2018-04-14T11:29:23.985Z,97259.61
2018-04-14T11:31:53.041Z,97257.35
2018-04-14T11:34:26.684Z,97256.44
2018-04-14T11:36:56.194Z,97256.03
2018-04-14T11:39:35.218Z,97265.24
2018-04-14T11:42:05.850Z,97262.70
2018-04-14T11:44:50.110Z,97261.48
2018-04-14T11:47:19.745Z,97255.78
2018-04-14T11:49:49.149Z,97259.55
2018-04-14T11:52:19.084Z,97257.34
2018-04-14T11:54:50.009Z,97249.95
2018-04-14T11:57:18.356Z,97249.13
2018-04-14T11:59:48.387Z,97252.02
2018-04-14T12:02:17.379Z,97249.02
2018-04-14T12:04:46.360Z,97253.42
2018-04-14T12:07:14.753Z,97251.27
2018-04-14T12:09:43.137Z,97248.73
2018-04-14T12:12:11.618Z,97238.61
2018-04-14T12:14:40.605Z,97237.41
2018-04-14T12:17:19.361Z,97225.97
2018-04-14T12:19:55.995Z,97235.25
2018-04-14T12:25:13.599Z,97242.69
2018-04-14T12:27:43.580Z,97234.78
2018-04-14T12:30:11.943Z,97233.70
2018-04-14T12:32:41.081Z,97250.44
2018-04-14T12:35:14.175Z,97233.22
2018-04-14T12:37:42.437Z,97234.00
2018-04-14T12:40:12.490Z,97224.27
2018-04-14T12:42:42.564Z,97223.68
2018-04-14T12:45:14.708Z,97228.98
2018-04-14T12:47:49.148Z,97221.92
2018-04-14T12:50:22.339Z,97237.59
2018-04-14T12:52:50.744Z,97220.27
2018-04-14T12:55:20.793Z,97219.41
2018-04-14T12:57:49.125Z,97221.08
2018-04-14T13:00:19.199Z,97212.13
2018-04-14T13:02:49.281Z,97207.02
2018-04-14T13:05:19.327Z,97209.16
2018-04-14T13:07:50.442Z,97205.05
2018-04-14T13:10:18.715Z,97205.97
2018-04-14T13:12:47.734Z,97192.12
2018-04-14T13:15:18.755Z,97193.51
2018-04-14T13:17:47.133Z,97197.88
2018-04-14T13:20:15.423Z,97188.75
2018-04-14T13:22:47.919Z,97186.14
2018-04-14T13:25:16.384Z,97187.19
2018-04-14T13:27:45.369Z,97183.61
2018-04-14T13:30:14.890Z,97181.23
2018-04-14T13:32:45.121Z,97174.82
2018-04-14T13:35:15.345Z,97182.19
2018-04-14T13:40:24.887Z,97159.95
2018-04-14T13:42:54.770Z,97159.55
2018-04-14T13:45:24.737Z,97157.13
2018-04-14T13:47:54.762Z,97158.87
2018-04-14T13:50:23.027Z,97148.34
2018-04-14T13:52:51.390Z,97154.23
2018-04-14T13:55:20.509Z,97146.02
2018-04-14T13:57:49.615Z,97138.37
2018-04-14T14:00:19.747Z,97144.08
2018-04-14T14:02:49.835Z,97140.41
2018-04-14T14:05:18.241Z,97135.95
2018-04-14T14:07:46.518Z,97133.16
2018-04-14T14:10:15.519Z,97131.59
2018-04-14T14:12:46.918Z,97131.01
2018-04-14T14:15:18.337Z,97129.22
2018-04-14T14:17:49.324Z,97126.74
2018-04-14T14:20:20.144Z,97124.38
2018-04-14T14:22:48.491Z,97115.65
2018-04-14T14:25:16.858Z,97114.86
2018-04-14T14:27:46.268Z,97108.88
2018-04-14T14:33:01.604Z,97103.78
2018-04-14T14:35:33.288Z,97102.72
2018-04-14T14:38:03.397Z,97102.23
2018-04-14T14:40:32.427Z,97097.47
2018-04-14T14:43:02.439Z,97104.15
2018-04-14T14:45:34.735Z,97105.00
2018-04-14T14:48:03.116Z,97105.43
2018-04-14T14:50:34.339Z,97111.18
2018-04-14T14:53:02.744Z,97102.77
2018-04-14T14:55:31.247Z,97107.16
2018-04-14T14:58:01.355Z,97108.62
2018-04-14T15:00:30.452Z,97103.97
2018-04-14T15:02:58.931Z,97106.73
2018-04-14T15:05:27.453Z,97104.66
2018-04-14T15:08:08.517Z,97109.83
2018-04-14T15:10:40.063Z,97110.45
2018-04-14T15:13:09.968Z,97115.05
2018-04-14T15:15:38.446Z,97119.30
2018-04-14T15:18:08.572Z,97115.97
2018-04-14T15:20:37.673Z,97118.25
2018-04-14T15:23:06.084Z,97120.23
2018-04-14T15:25:37.890Z,97111.48
2018-04-14T15:28:06.906Z,97104.75
2018-04-14T15:30:35.290Z,97101.09
2018-04-14T15:33:05.256Z,97096.27
2018-04-14T15:35:53.422Z,97096.97
2018-04-14T15:38:26.327Z,97098.51
2018-04-14T15:40:56.316Z,97087.06
2018-04-14T15:43:30.086Z,97090.55
2018-04-14T15:46:00.311Z,97099.05
2018-04-14T15:48:28.770Z,97100.09
2018-04-14T15:50:59.130Z,97097.30
2018-04-14T15:53:31.338Z,97095.48
2018-04-14T15:55:59.653Z,97097.84
2018-04-14T15:58:28.133Z,97113.14
2018-04-14T16:00:56.528Z,97110.81
2018-04-14T16:03:25.009Z,97106.13
2018-04-14T16:05:58.160Z,97092.65
2018-04-14T16:08:27.018Z,97088.63
2018-04-14T16:10:56.834Z,97081.47
2018-04-14T16:13:26.045Z,97091.95
2018-04-14T16:15:59.372Z,97084.31
2018-04-14T16:18:29.600Z,97084.55
2018-04-14T16:20:58.011Z,97089.34
2018-04-14T16:23:26.504Z,97081.17
2018-04-14T16:25:54.976Z,97074.34
2018-04-14T16:28:23.466Z,97069.52
2018-04-14T16:30:53.084Z,97069.79
2018-04-14T16:33:21.355Z,97067.72
2018-04-14T16:35:49.647Z,97062.14
2018-04-14T16:38:20.589Z,97072.16
2018-04-14T16:40:48.939Z,97067.66
2018-04-14T16:43:20.528Z,97063.53
2018-04-14T16:45:51.349Z,97061.95
2018-04-14T16:48:19.741Z,97049.77
2018-04-14T16:50:53.357Z,97053.34
2018-04-14T16:53:21.768Z,97049.58
2018-04-14T16:55:50.103Z,97051.50
2018-04-14T16:58:18.496Z,97048.30
2018-04-14T17:00:46.971Z,97045.16
2018-04-14T17:03:20.989Z,97042.67
2018-04-14T17:05:49.476Z,97040.02
2018-04-14T17:08:19.509Z,97043.66
2018-04-14T17:10:51.143Z,97047.72
2018-04-14T17:13:19.528Z,97046.94
2018-04-14T17:15:50.359Z,97043.75
2018-04-14T17:18:18.871Z,97048.70
2018-04-14T17:20:47.250Z,97045.84
2018-04-14T17:23:17.381Z,97041.64
2018-04-14T17:25:47.887Z,97044.40
2018-04-14T17:28:16.156Z,97044.11
2018-04-14T17:30:47.238Z,97051.11
2018-04-14T17:33:16.408Z,97046.94
2018-04-14T17:35:51.339Z,97043.66
2018-04-14T17:38:21.493Z,97037.05
2018-04-14T17:40:49.958Z,97038.03
2018-04-14T17:43:19.881Z,97041.20
2018-04-14T17:45:48.353Z,97038.83
2018-04-14T17:48:21.332Z,97035.14
2018-04-14T17:50:49.723Z,97034.02
2018-04-14T17:53:20.652Z,97034.13
2018-04-14T17:55:49.755Z,97035.53
2018-04-14T17:58:20.318Z,97045.92
2018-04-14T18:00:48.884Z,97041.76
2018-04-14T18:03:22.864Z,97042.73
2018-04-14T18:05:51.179Z,97040.70
2018-04-14T18:08:19.539Z,97035.25
2018-04-14T18:10:51.411Z,97033.20
2018-04-14T18:13:21.514Z,97029.06
2018-04-14T18:15:49.769Z,97028.30
2018-04-14T18:18:19.849Z,97039.06
2018-04-14T18:20:48.224Z,97039.12
2018-04-14T18:23:18.650Z,97044.72
2018-04-14T18:25:49.428Z,97051.17
2018-04-14T18:28:19.361Z,97044.44
2018-04-14T18:30:52.085Z,97036.82
2018-04-14T18:33:25.291Z,97036.06
2018-04-14T18:35:53.664Z,97040.05
2018-04-14T18:38:22.054Z,97031.20
2018-04-14T18:40:53.181Z,97035.16
2018-04-14T18:43:21.655Z,97041.64
2018-04-14T18:45:50.069Z,97048.52
2018-04-14T18:48:21.093Z,97054.55
2018-04-14T18:50:49.594Z,97053.41
2018-04-14T18:53:20.577Z,97052.25
2018-04-14T18:55:50.585Z,97050.20
2018-04-14T18:58:18.869Z,97049.82
2018-04-14T19:00:47.104Z,97053.31
2018-04-14T19:03:19.083Z,97055.91
2018-04-14T19:05:48.553Z,97056.81
2018-04-14T19:08:18.631Z,97053.03
2018-04-14T19:10:48.842Z,97054.75
2018-04-14T19:13:21.475Z,97058.63
2018-04-14T19:15:51.463Z,97060.37
2018-04-14T19:18:20.385Z,97049.33
2018-04-14T19:20:50.115Z,97061.73
2018-04-14T19:23:23.656Z,97057.05
2018-04-14T19:25:53.772Z,97055.80
2018-04-14T19:28:23.887Z,97048.61
2018-04-14T19:30:52.357Z,97053.34
2018-04-14T19:33:22.473Z,97053.82
2018-04-14T19:35:52.540Z,97050.02
2018-04-14T19:38:22.621Z,97056.86
2018-04-14T19:40:52.606Z,97054.30
2018-04-14T19:43:21.816Z,97053.48
2018-04-14T19:45:51.834Z,97059.02
2018-04-14T19:48:20.254Z,97054.34
2018-04-14T19:50:51.693Z,97059.48
2018-04-14T19:53:21.415Z,97061.23
2018-04-14T19:55:49.902Z,97052.78
2018-04-14T19:58:19.799Z,97055.80
2018-04-14T20:00:50.752Z,97061.36
2018-04-14T20:03:20.821Z,97057.57
2018-04-14T20:05:49.259Z,97066.05
2018-04-14T20:08:20.237Z,97058.41
2018-04-14T20:10:50.307Z,97062.25
2018-04-14T20:13:20.461Z,97060.55
2018-04-14T20:15:51.955Z,97061.39
2018-04-14T20:18:20.279Z,97049.52
2018-04-14T20:20:48.580Z,97050.77
2018-04-14T20:23:18.066Z,97045.25
2018-04-14T20:25:49.113Z,97046.13
2018-04-14T20:28:19.200Z,97044.01
2018-04-14T20:30:50.032Z,97038.46
2018-04-14T20:33:21.084Z,97045.27
2018-04-14T20:35:54.165Z,97040.61
2018-04-14T20:38:24.102Z,97037.64
2018-04-14T20:40:53.138Z,97047.83
2018-04-14T20:43:23.338Z,97037.21
2018-04-14T20:45:52.327Z,97035.51
2018-04-14T20:48:20.614Z,97038.95
2018-04-14T20:50:48.998Z,97038.93
2018-04-14T20:53:19.815Z,97033.00
2018-04-14T20:55:54.390Z,97035.55
2018-04-14T20:58:25.277Z,97027.89
2018-04-14T21:00:53.600Z,97024.50
2018-04-14T21:03:22.699Z,97020.69
2018-04-14T21:05:53.115Z,97019.82
2018-04-14T21:08:29.108Z,97013.02
2018-04-14T21:10:59.096Z,97011.32
2018-04-14T21:13:27.440Z,97005.81
2018-04-14T21:15:55.893Z,97004.10
2018-04-14T21:18:26.037Z,97009.20
2018-04-14T21:20:54.431Z,97007.06
2018-04-14T21:23:23.440Z,97005.80
2018-04-14T21:25:53.437Z,97011.34
2018-04-14T21:28:23.558Z,97011.31
2018-04-14T21:30:52.588Z,97002.83
2018-04-14T21:33:20.865Z,97006.20
2018-04-14T21:35:51.834Z,97011.70
2018-04-14T21:38:21.936Z,97009.99
2018-04-14T21:40:51.997Z,97010.39
2018-04-14T21:43:29.619Z,97011.27
2018-04-14T21:45:57.911Z,97006.14
2018-04-14T21:48:28.827Z,97007.83
2018-04-14T21:50:57.984Z,97009.95
2018-04-14T21:53:28.975Z,97006.14
2018-04-14T21:55:58.105Z,97006.13
2018-04-14T21:58:27.094Z,97007.84
2018-04-14T22:00:55.593Z,96997.63
2018-04-14T22:03:32.241Z,96996.38
2018-04-14T22:06:02.168Z,97001.03
2018-04-14T22:08:30.453Z,96994.23
2018-04-14T22:11:00.641Z,96993.36
2018-04-14T22:13:29.775Z,96987.00
2018-04-14T22:15:58.063Z,96973.38
2018-04-14T22:18:36.048Z,96963.16
2018-04-14T22:21:04.543Z,96953.38
2018-04-14T22:23:35.072Z,96947.42
2018-04-14T22:26:03.360Z,96944.86
2018-04-14T22:28:39.099Z,96938.08
2018-04-14T22:31:07.353Z,96938.50
2018-04-14T22:33:35.668Z,96934.23
2018-04-14T22:36:05.737Z,96929.56
2018-04-14T22:38:35.644Z,96931.66
2018-04-14T22:41:06.575Z,96929.97
2018-04-14T22:43:36.682Z,96930.83
2018-04-14T22:46:07.850Z,96927.86
2018-04-14T22:48:36.125Z,96917.69
2018-04-14T22:51:04.396Z,96914.69
2018-04-14T22:53:32.755Z,96907.04
2018-04-14T22:56:02.843Z,96912.96
2018-04-14T22:58:31.922Z,96897.28
2018-04-14T23:01:06.513Z,96894.73
2018-04-14T23:03:34.883Z,96895.59
2018-04-14T23:06:04.937Z,96892.64
2018-04-14T23:08:34.903Z,96892.64
2018-04-14T23:11:03.285Z,96886.72
2018-04-14T23:13:33.433Z,96885.00
2018-04-14T23:16:01.806Z,96883.70
2018-04-14T23:18:30.805Z,96886.25
2018-04-14T23:20:59.033Z,96883.75
2018-04-14T23:23:29.031Z,96886.72
2018-04-14T23:25:57.381Z,96884.58
2018-04-14T23:28:27.546Z,96880.77
2018-04-14T23:30:55.884Z,96882.45
2018-04-14T23:33:25.905Z,96884.55
2018-04-14T23:35:56.249Z,96875.66
2018-04-14T23:38:24.515Z,96878.19
2018-04-14T23:40:52.763Z,96866.33
2018-04-14T23:43:22.856Z,96867.15
2018-04-14T23:45:51.902Z,96865.88
2018-04-14T23:48:28.064Z,96859.47
2018-04-14T23:50:58.189Z,96855.20
2018-04-14T23:53:27.895Z,96849.66
2018-04-14T23:55:56.992Z,96846.25
2018-04-14T23:58:27.102Z,96839.02
